sensor_id;sensor_type;location;lat;lon;timestamp;pressure;altitude;pressure_sealevel;temperature;humidity
28927;BME280;16038;47.692;9.400;2023-08-01T00:00:33;95886.44;;;17.55;100.00
28927;BME280;16038;47.692;9.400;2023-08-01T00:02:59;95883.94;;;17.61;100.00
28927;BME280;16038;47.692;9.400;2023-08-01T00:05:24;95868.38;;;17.67;100.00
28927;BME280;16038;47.692;9.400;2023-08-01T00:07:50;95864.72;;;17.53;100.00
28927;BME280;16038;47.692;9.400;2023-08-01T00:10:15;95849.94;;;17.60;100.00
28927;BME280;16038;47.692;9.400;2023-08-01T00:12:42;95854.25;;;17.45;100.00
28927;BME280;16038;47.692;9.400;2023-08-01T00:15:08;95845.69;;;17.39;100.00
28927;BME280;16038;47.692;9.400;2023-08-01T00:17:33;95842.41;;;17.44;100.00
28927;BME280;16038;47.692;9.400;2023-08-01T00:20:03;95835.59;;;17.49;100.00
28927;BME280;16038;47.692;9.400;2023-08-01T00:22:29;95826.75;;;17.37;100.00
28927;BME280;16038;47.692;9.400;2023-08-01T00:24:55;95813.63;;;17.25;100.00
28927;BME280;16038;47.692;9.400;2023-08-01T00:27:20;95792.09;;;17.00;100.00
28927;BME280;16038;47.692;9.400;2023-08-01T00:29:46;95800.03;;;16.98;100.00
28927;BME280;16038;47.692;9.400;2023-08-01T00:32:11;95804.19;;;17.06;100.00
28927;BME280;16038;47.692;9.400;2023-08-01T00:34:37;95786.22;;;16.98;100.00
28927;BME280;16038;47.692;9.400;2023-08-01T00:37:03;95782.56;;;17.17;100.00
28927;BME280;16038;47.692;9.400;2023-08-01T00:39:28;95780.84;;;17.24;100.00
28927;BME280;16038;47.692;9.400;2023-08-01T00:41:54;95779.34;;;17.35;100.00
28927;BME280;16038;47.692;9.400;2023-08-01T00:44:19;95774.69;;;17.49;100.00
28927;BME280;16038;47.692;9.400;2023-08-01T00:46:45;95779.47;;;17.77;100.00
28927;BME280;16038;47.692;9.400;2023-08-01T00:49:11;95770.72;;;17.95;100.00
28927;BME280;16038;47.692;9.400;2023-08-01T00:51:36;95765.84;;;18.00;100.00
28927;BME280;16038;47.692;9.400;2023-08-01T00:54:02;95764.53;;;18.04;100.00
28927;BME280;16038;47.692;9.400;2023-08-01T00:56:27;95769.97;;;18.08;100.00
28927;BME280;16038;47.692;9.400;2023-08-01T00:58:53;95767.88;;;18.12;100.00
28927;BME280;16038;47.692;9.400;2023-08-01T01:01:18;95764.34;;;18.11;100.00
28927;BME280;16038;47.692;9.400;2023-08-01T01:03:44;95755.66;;;18.09;100.00
28927;BME280;16038;47.692;9.400;2023-08-01T01:06:32;95745.97;;;17.88;100.00
28927;BME280;16038;47.692;9.400;2023-08-01T01:08:58;95747.53;;;17.73;100.00
28927;BME280;16038;47.692;9.400;2023-08-01T01:11:23;95733.88;;;17.66;100.00
28927;BME280;16038;47.692;9.400;2023-08-01T01:13:49;95728.59;;;17.71;100.00
28927;BME280;16038;47.692;9.400;2023-08-01T01:16:18;95720.53;;;17.93;100.00
28927;BME280;16038;47.692;9.400;2023-08-01T01:18:43;95714.41;;;17.99;100.00
28927;BME280;16038;47.692;9.400;2023-08-01T01:21:09;95708.97;;;17.95;100.00
28927;BME280;16038;47.692;9.400;2023-08-01T01:23:34;95706.09;;;17.99;100.00
28927;BME280;16038;47.692;9.400;2023-08-01T01:26:00;95703.78;;;17.97;100.00
28927;BME280;16038;47.692;9.400;2023-08-01T01:28:28;95699.47;;;17.67;100.00
28927;BME280;16038;47.692;9.400;2023-08-01T01:30:54;95690.75;;;17.52;100.00
28927;BME280;16038;47.692;9.400;2023-08-01T01:33:20;95684.78;;;17.53;100.00
28927;BME280;16038;47.692;9.400;2023-08-01T01:35:47;95685.63;;;17.21;100.00
28927;BME280;16038;47.692;9.400;2023-08-01T01:38:12;95679.38;;;17.33;100.00
28927;BME280;16038;47.692;9.400;2023-08-01T01:40:38;95674.34;;;17.45;100.00
28927;BME280;16038;47.692;9.400;2023-08-01T01:43:03;95681.47;;;17.58;100.00
28927;BME280;16038;47.692;9.400;2023-08-01T01:45:29;95682.19;;;17.46;100.00
28927;BME280;16038;47.692;9.400;2023-08-01T01:47:54;95678.31;;;17.44;100.00
28927;BME280;16038;47.692;9.400;2023-08-01T01:50:19;95671.63;;;17.57;100.00
28927;BME280;16038;47.692;9.400;2023-08-01T01:52:45;95680.06;;;17.67;100.00
28927;BME280;16038;47.692;9.400;2023-08-01T01:55:11;95670.25;;;17.49;100.00
28927;BME280;16038;47.692;9.400;2023-08-01T01:57:36;95678.91;;;17.22;100.00
28927;BME280;16038;47.692;9.400;2023-08-01T02:00:03;95671.94;;;16.85;100.00
28927;BME280;16038;47.692;9.400;2023-08-01T02:02:29;95678.69;;;16.84;100.00
28927;BME280;16038;47.692;9.400;2023-08-01T02:04:54;95670.41;;;16.84;100.00
28927;BME280;16038;47.692;9.400;2023-08-01T02:07:20;95665.53;;;16.88;100.00
28927;BME280;16038;47.692;9.400;2023-08-01T02:09:45;95663.88;;;16.90;100.00
28927;BME280;16038;47.692;9.400;2023-08-01T02:12:12;95666.13;;;16.95;100.00
28927;BME280;16038;47.692;9.400;2023-08-01T02:14:39;95682.47;;;17.06;100.00
28927;BME280;16038;47.692;9.400;2023-08-01T02:17:05;95673.38;;;17.22;100.00
28927;BME280;16038;47.692;9.400;2023-08-01T02:19:31;95662.81;;;17.46;100.00
28927;BME280;16038;47.692;9.400;2023-08-01T02:21:57;95667.19;;;17.60;100.00
28927;BME280;16038;47.692;9.400;2023-08-01T02:24:23;95667.00;;;17.67;100.00
28927;BME280;16038;47.692;9.400;2023-08-01T02:26:49;95669.56;;;17.74;100.00
28927;BME280;16038;47.692;9.400;2023-08-01T02:29:15;95674.03;;;17.85;100.00
28927;BME280;16038;47.692;9.400;2023-08-01T02:31:40;95666.31;;;17.92;100.00
28927;BME280;16038;47.692;9.400;2023-08-01T02:34:05;95667.53;;;17.91;100.00
28927;BME280;16038;47.692;9.400;2023-08-01T02:36:31;95669.69;;;17.84;100.00
28927;BME280;16038;47.692;9.400;2023-08-01T02:38:56;95671.84;;;17.92;100.00
28927;BME280;16038;47.692;9.400;2023-08-01T02:41:22;95670.09;;;17.99;100.00
28927;BME280;16038;47.692;9.400;2023-08-01T02:43:47;95672.41;;;18.00;100.00
28927;BME280;16038;47.692;9.400;2023-08-01T02:46:12;95659.47;;;18.10;100.00
28927;BME280;16038;47.692;9.400;2023-08-01T02:48:38;95690.97;;;18.16;100.00
28927;BME280;16038;47.692;9.400;2023-08-01T02:51:03;95693.84;;;18.12;100.00
28927;BME280;16038;47.692;9.400;2023-08-01T02:53:28;95661.81;;;18.11;100.00
28927;BME280;16038;47.692;9.400;2023-08-01T02:55:54;95677.66;;;18.11;100.00
28927;BME280;16038;47.692;9.400;2023-08-01T02:58:19;95666.44;;;18.02;100.00
28927;BME280;16038;47.692;9.400;2023-08-01T03:00:45;95679.28;;;17.95;100.00
28927;BME280;16038;47.692;9.400;2023-08-01T03:03:10;95686.47;;;17.93;100.00
28927;BME280;16038;47.692;9.400;2023-08-01T03:05:36;95696.34;;;17.94;100.00
28927;BME280;16038;47.692;9.400;2023-08-01T03:08:03;95696.13;;;17.88;100.00
28927;BME280;16038;47.692;9.400;2023-08-01T03:10:29;95668.75;;;17.90;100.00
28927;BME280;16038;47.692;9.400;2023-08-01T03:12:54;95691.34;;;17.89;100.00
28927;BME280;16038;47.692;9.400;2023-08-01T03:15:19;95697.66;;;17.89;100.00
28927;BME280;16038;47.692;9.400;2023-08-01T03:17:45;95692.34;;;17.95;100.00
28927;BME280;16038;47.692;9.400;2023-08-01T03:20:10;95685.47;;;17.87;100.00
28927;BME280;16038;47.692;9.400;2023-08-01T03:22:38;95686.94;;;17.75;100.00
28927;BME280;16038;47.692;9.400;2023-08-01T03:25:05;95684.97;;;17.75;100.00
28927;BME280;16038;47.692;9.400;2023-08-01T03:27:35;95694.69;;;17.67;100.00
28927;BME280;16038;47.692;9.400;2023-08-01T03:30:01;95697.13;;;17.65;100.00
28927;BME280;16038;47.692;9.400;2023-08-01T03:32:26;95690.56;;;17.59;100.00
28927;BME280;16038;47.692;9.400;2023-08-01T03:34:52;95701.00;;;17.68;100.00
28927;BME280;16038;47.692;9.400;2023-08-01T03:37:17;95696.59;;;17.70;100.00
28927;BME280;16038;47.692;9.400;2023-08-01T03:39:43;95703.03;;;17.80;100.00
28927;BME280;16038;47.692;9.400;2023-08-01T03:42:08;95701.41;;;17.83;100.00
28927;BME280;16038;47.692;9.400;2023-08-01T03:44:34;95707.72;;;17.83;100.00
28927;BME280;16038;47.692;9.400;2023-08-01T03:46:59;95701.56;;;17.92;100.00
28927;BME280;16038;47.692;9.400;2023-08-01T03:49:24;95690.25;;;17.86;100.00
28927;BME280;16038;47.692;9.400;2023-08-01T03:51:50;95702.75;;;17.91;100.00
28927;BME280;16038;47.692;9.400;2023-08-01T03:54:15;95701.66;;;17.88;100.00
28927;BME280;16038;47.692;9.400;2023-08-01T03:56:41;95705.44;;;17.94;100.00
28927;BME280;16038;47.692;9.400;2023-08-01T03:59:13;95696.91;;;18.02;100.00
28927;BME280;16038;47.692;9.400;2023-08-01T04:01:38;95704.91;;;18.12;100.00
28927;BME280;16038;47.692;9.400;2023-08-01T04:04:04;95702.16;;;18.12;100.00
28927;BME280;16038;47.692;9.400;2023-08-01T04:06:29;95719.00;;;18.18;100.00
28927;BME280;16038;47.692;9.400;2023-08-01T04:08:55;95720.56;;;18.19;100.00
28927;BME280;16038;47.692;9.400;2023-08-01T04:11:22;95716.81;;;18.26;100.00
28927;BME280;16038;47.692;9.400;2023-08-01T04:13:49;95713.94;;;18.29;100.00
28927;BME280;16038;47.692;9.400;2023-08-01T04:16:14;95722.38;;;18.39;100.00
28927;BME280;16038;47.692;9.400;2023-08-01T04:18:40;95718.59;;;18.45;100.00
28927;BME280;16038;47.692;9.400;2023-08-01T04:21:06;95723.81;;;18.56;100.00
28927;BME280;16038;47.692;9.400;2023-08-01T04:23:31;95725.38;;;18.57;100.00
28927;BME280;16038;47.692;9.400;2023-08-01T04:25:57;95725.38;;;18.57;100.00
28927;BME280;16038;47.692;9.400;2023-08-01T04:28:23;95734.56;;;18.54;100.00
28927;BME280;16038;47.692;9.400;2023-08-01T04:30:49;95734.91;;;18.56;100.00
28927;BME280;16038;47.692;9.400;2023-08-01T04:33:15;95733.47;;;18.64;100.00
28927;BME280;16038;47.692;9.400;2023-08-01T04:35:40;95731.13;;;18.63;100.00
28927;BME280;16038;47.692;9.400;2023-08-01T04:38:05;95736.34;;;18.73;100.00
28927;BME280;16038;47.692;9.400;2023-08-01T04:40:31;95731.56;;;18.74;100.00
28927;BME280;16038;47.692;9.400;2023-08-01T04:42:56;95730.25;;;18.79;100.00
28927;BME280;16038;47.692;9.400;2023-08-01T04:45:22;95735.38;;;18.80;100.00
28927;BME280;16038;47.692;9.400;2023-08-01T04:47:47;95730.25;;;18.79;100.00
28927;BME280;16038;47.692;9.400;2023-08-01T04:50:13;95738.13;;;18.80;100.00
28927;BME280;16038;47.692;9.400;2023-08-01T04:52:38;95736.34;;;18.73;100.00
28927;BME280;16038;47.692;9.400;2023-08-01T04:55:04;95727.59;;;18.75;100.00
28927;BME280;16038;47.692;9.400;2023-08-01T04:57:30;95725.16;;;18.77;100.00
28927;BME280;16038;47.692;9.400;2023-08-01T04:59:55;95732.69;;;18.77;100.00
28927;BME280;16038;47.692;9.400;2023-08-01T05:02:21;95735.38;;;18.80;100.00
28927;BME280;16038;47.692;9.400;2023-08-01T05:04:46;95737.16;;;18.87;100.00
28927;BME280;16038;47.692;9.400;2023-08-01T05:07:11;95741.81;;;18.90;100.00
28927;BME280;16038;47.692;9.400;2023-08-01T05:09:37;95731.59;;;18.87;100.00
28927;BME280;16038;47.692;9.400;2023-08-01T05:12:02;95735.16;;;18.87;100.00
28927;BME280;16038;47.692;9.400;2023-08-01T05:14:28;95741.69;;;18.94;100.00
28927;BME280;16038;47.692;9.400;2023-08-01T05:16:53;95720.50;;;18.87;100.00
28927;BME280;16038;47.692;9.400;2023-08-01T05:19:19;95742.56;;;18.90;96.43
28927;BME280;16038;47.692;9.400;2023-08-01T05:21:44;95744.59;;;18.90;95.85
28927;BME280;16038;47.692;9.400;2023-08-01T05:24:09;95736.38;;;18.86;96.78
28927;BME280;16038;47.692;9.400;2023-08-01T05:26:36;95732.38;;;18.87;96.60
28927;BME280;16038;47.692;9.400;2023-08-01T05:29:01;95742.13;;;18.92;99.40
28927;BME280;16038;47.692;9.400;2023-08-01T05:31:26;95725.03;;;18.81;100.00
28927;BME280;16038;47.692;9.400;2023-08-01T05:33:52;95734.03;;;18.59;100.00
28927;BME280;16038;47.692;9.400;2023-08-01T05:36:17;95724.94;;;18.46;100.00
28927;BME280;16038;47.692;9.400;2023-08-01T05:38:43;95720.81;;;18.38;100.00
28927;BME280;16038;47.692;9.400;2023-08-01T05:41:08;95723.22;;;18.23;100.00
28927;BME280;16038;47.692;9.400;2023-08-01T05:43:33;95716.22;;;18.05;100.00
28927;BME280;16038;47.692;9.400;2023-08-01T05:45:59;95711.63;;;17.99;100.00
28927;BME280;16038;47.692;9.400;2023-08-01T05:48:24;95715.97;;;18.00;100.00
28927;BME280;16038;47.692;9.400;2023-08-01T05:50:50;95718.53;;;18.07;100.00
28927;BME280;16038;47.692;9.400;2023-08-01T05:53:15;95717.44;;;18.04;100.00
28927;BME280;16038;47.692;9.400;2023-08-01T05:55:40;95715.00;;;18.06;100.00
28927;BME280;16038;47.692;9.400;2023-08-01T05:58:06;95709.78;;;18.08;100.00
28927;BME280;16038;47.692;9.400;2023-08-01T06:00:31;95712.13;;;18.10;100.00
28927;BME280;16038;47.692;9.400;2023-08-01T06:02:57;95721.31;;;18.07;100.00
28927;BME280;16038;47.692;9.400;2023-08-01T06:05:22;95729.41;;;18.14;100.00
28927;BME280;16038;47.692;9.400;2023-08-01T06:07:47;95709.69;;;18.12;100.00
28927;BME280;16038;47.692;9.400;2023-08-01T06:10:13;95726.44;;;18.21;100.00
28927;BME280;16038;47.692;9.400;2023-08-01T06:12:41;95728.88;;;18.19;100.00
28927;BME280;16038;47.692;9.400;2023-08-01T06:15:06;95735.28;;;18.16;100.00
28927;BME280;16038;47.692;9.400;2023-08-01T06:17:32;95730.19;;;18.14;100.00
28927;BME280;16038;47.692;9.400;2023-08-01T06:19:57;95734.84;;;18.18;100.00
28927;BME280;16038;47.692;9.400;2023-08-01T06:22:23;95729.53;;;18.10;100.00
28927;BME280;16038;47.692;9.400;2023-08-01T06:24:48;95732.78;;;17.92;100.00
28927;BME280;16038;47.692;9.400;2023-08-01T06:27:13;95712.91;;;17.81;100.00
28927;BME280;16038;47.692;9.400;2023-08-01T06:29:40;95715.06;;;17.90;100.00
28927;BME280;16038;47.692;9.400;2023-08-01T06:32:06;95711.09;;;17.74;100.00
28927;BME280;16038;47.692;9.400;2023-08-01T06:34:31;95725.06;;;17.71;100.00
28927;BME280;16038;47.692;9.400;2023-08-01T06:36:57;95722.94;;;17.46;100.00
28927;BME280;16038;47.692;9.400;2023-08-01T06:39:22;95712.66;;;17.46;100.00
28927;BME280;16038;47.692;9.400;2023-08-01T06:41:48;95719.31;;;17.49;100.00
28927;BME280;16038;47.692;9.400;2023-08-01T06:44:13;95708.34;;;17.45;100.00
28927;BME280;16038;47.692;9.400;2023-08-01T06:46:38;95697.81;;;17.40;100.00
28927;BME280;16038;47.692;9.400;2023-08-01T06:49:04;95696.38;;;17.48;100.00
28927;BME280;16038;47.692;9.400;2023-08-01T06:51:29;95688.25;;;17.57;100.00
28927;BME280;16038;47.692;9.400;2023-08-01T06:53:55;95678.22;;;17.76;100.00
28927;BME280;16038;47.692;9.400;2023-08-01T06:56:20;95680.00;;;17.83;100.00
28927;BME280;16038;47.692;9.400;2023-08-01T06:58:47;95674.13;;;17.81;100.00
28927;BME280;16038;47.692;9.400;2023-08-01T07:01:12;95656.53;;;17.88;100.00
28927;BME280;16038;47.692;9.400;2023-08-01T07:03:38;95660.13;;;17.88;100.00
28927;BME280;16038;47.692;9.400;2023-08-01T07:06:03;95650.56;;;17.89;100.00
28927;BME280;16038;47.692;9.400;2023-08-01T07:08:28;95654.91;;;17.90;100.00
28927;BME280;16038;47.692;9.400;2023-08-01T07:10:54;95666.09;;;18.00;100.00
28927;BME280;16038;47.692;9.400;2023-08-01T07:13:19;95661.88;;;17.95;100.00
28927;BME280;16038;47.692;9.400;2023-08-01T07:15:44;95639.66;;;18.11;100.00
28927;BME280;16038;47.692;9.400;2023-08-01T07:18:10;95629.75;;;17.98;100.00
28927;BME280;16038;47.692;9.400;2023-08-01T07:20:35;95635.97;;;18.02;100.00
28927;BME280;16038;47.692;9.400;2023-08-01T07:23:00;95656.28;;;17.82;100.00
28927;BME280;16038;47.692;9.400;2023-08-01T07:25:26;95658.69;;;17.67;100.00
28927;BME280;16038;47.692;9.400;2023-08-01T07:27:51;95653.78;;;17.58;100.00
28927;BME280;16038;47.692;9.400;2023-08-01T07:30:16;95641.50;;;17.60;100.00
28927;BME280;16038;47.692;9.400;2023-08-01T07:32:42;95638.09;;;17.68;100.00
28927;BME280;16038;47.692;9.400;2023-08-01T07:35:08;95623.13;;;17.66;100.00
28927;BME280;16038;47.692;9.400;2023-08-01T07:37:34;95625.38;;;17.71;100.00
28927;BME280;16038;47.692;9.400;2023-08-01T07:39:59;95632.16;;;17.83;100.00
28927;BME280;16038;47.692;9.400;2023-08-01T07:42:25;95613.22;;;17.81;100.00
28927;BME280;16038;47.692;9.400;2023-08-01T07:44:50;95626.66;;;17.95;100.00
28927;BME280;16038;47.692;9.400;2023-08-01T07:47:15;95634.22;;;18.08;100.00
28927;BME280;16038;47.692;9.400;2023-08-01T07:49:41;95631.56;;;18.17;100.00
28927;BME280;16038;47.692;9.400;2023-08-01T07:52:06;95641.31;;;18.22;100.00
28927;BME280;16038;47.692;9.400;2023-08-01T07:54:32;95633.88;;;18.31;100.00
28927;BME280;16038;47.692;9.400;2023-08-01T07:56:57;95634.97;;;18.47;100.00
28927;BME280;16038;47.692;9.400;2023-08-01T07:59:23;95638.53;;;18.60;100.00
28927;BME280;16038;47.692;9.400;2023-08-01T08:01:48;95641.28;;;18.73;100.00
28927;BME280;16038;47.692;9.400;2023-08-01T08:04:14;95641.94;;;18.77;100.00
28927;BME280;16038;47.692;9.400;2023-08-01T08:06:40;95646.06;;;18.60;100.00
28927;BME280;16038;47.692;9.400;2023-08-01T08:09:05;95650.94;;;18.56;100.00
28927;BME280;16038;47.692;9.400;2023-08-01T08:11:31;95650.38;;;18.61;100.00
28927;BME280;16038;47.692;9.400;2023-08-01T08:13:56;95650.28;;;18.64;100.00
28927;BME280;16038;47.692;9.400;2023-08-01T08:16:22;95657.13;;;18.72;100.00
28927;BME280;16038;47.692;9.400;2023-08-01T08:18:47;95647.28;;;18.84;100.00
28927;BME280;16038;47.692;9.400;2023-08-01T08:21:12;95656.22;;;19.01;100.00
28927;BME280;16038;47.692;9.400;2023-08-01T08:23:38;95649.34;;;19.06;100.00
28927;BME280;16038;47.692;9.400;2023-08-01T08:26:03;95658.44;;;19.06;100.00
28927;BME280;16038;47.692;9.400;2023-08-01T08:28:31;95661.69;;;18.79;100.00
28927;BME280;16038;47.692;9.400;2023-08-01T08:30:58;95666.47;;;18.66;100.00
28927;BME280;16038;47.692;9.400;2023-08-01T08:33:24;95658.16;;;18.66;100.00
28927;BME280;16038;47.692;9.400;2023-08-01T08:35:49;95653.59;;;18.59;100.00
28927;BME280;16038;47.692;9.400;2023-08-01T08:38:16;95657.72;;;18.42;100.00
28927;BME280;16038;47.692;9.400;2023-08-01T08:40:48;95664.91;;;18.52;100.00
28927;BME280;16038;47.692;9.400;2023-08-01T08:43:17;95676.88;;;18.10;100.00
28927;BME280;16038;47.692;9.400;2023-08-01T08:45:44;95681.63;;;17.97;100.00
28927;BME280;16038;47.692;9.400;2023-08-01T08:48:13;95665.25;;;18.15;100.00
28927;BME280;16038;47.692;9.400;2023-08-01T08:50:42;95692.19;;;18.66;100.00
28927;BME280;16038;47.692;9.400;2023-08-01T08:53:09;95688.31;;;18.77;100.00
28927;BME280;16038;47.692;9.400;2023-08-01T08:55:39;95692.09;;;18.70;100.00
28927;BME280;16038;47.692;9.400;2023-08-01T08:58:05;95701.94;;;18.58;100.00
28927;BME280;16038;47.692;9.400;2023-08-01T09:00:31;95710.59;;;18.47;100.00
28927;BME280;16038;47.692;9.400;2023-08-01T09:02:57;95715.91;;;18.29;100.00
28927;BME280;16038;47.692;9.400;2023-08-01T09:05:27;95726.72;;;17.98;100.00
28927;BME280;16038;47.692;9.400;2023-08-01T09:07:55;95731.25;;;17.75;100.00
28927;BME280;16038;47.692;9.400;2023-08-01T09:10:21;95728.25;;;17.40;100.00
28927;BME280;16038;47.692;9.400;2023-08-01T09:12:47;95737.59;;;17.13;100.00
28927;BME280;16038;47.692;9.400;2023-08-01T09:15:13;95728.03;;;17.18;100.00
28927;BME280;16038;47.692;9.400;2023-08-01T09:17:51;95731.91;;;16.88;100.00
28927;BME280;16038;47.692;9.400;2023-08-01T09:20:17;95730.56;;;16.76;100.00
28927;BME280;16038;47.692;9.400;2023-08-01T09:22:44;95718.94;;;16.85;100.00
28927;BME280;16038;47.692;9.400;2023-08-01T09:25:10;95710.22;;;16.86;100.00
28927;BME280;16038;47.692;9.400;2023-08-01T09:27:35;95718.06;;;16.71;100.00
28927;BME280;16038;47.692;9.400;2023-08-01T09:30:09;95711.91;;;16.63;100.00
28927;BME280;16038;47.692;9.400;2023-08-01T09:32:35;95724.59;;;16.61;100.00
28927;BME280;16038;47.692;9.400;2023-08-01T09:35:00;95738.94;;;16.72;100.00
28927;BME280;16038;47.692;9.400;2023-08-01T09:37:26;95733.69;;;16.78;100.00
28927;BME280;16038;47.692;9.400;2023-08-01T09:39:55;95736.44;;;16.78;100.00
28927;BME280;16038;47.692;9.400;2023-08-01T09:42:21;95738.53;;;16.74;100.00
28927;BME280;16038;47.692;9.400;2023-08-01T09:44:46;95741.84;;;16.85;100.00
28927;BME280;16038;47.692;9.400;2023-08-01T09:47:12;95737.59;;;17.13;100.00
28927;BME280;16038;47.692;9.400;2023-08-01T09:49:49;95723.09;;;17.09;100.00
28927;BME280;16038;47.692;9.400;2023-08-01T09:52:15;95726.81;;;16.86;100.00
28927;BME280;16038;47.692;9.400;2023-08-01T09:54:40;95728.06;;;16.65;100.00
28927;BME280;16038;47.692;9.400;2023-08-01T09:57:06;95726.59;;;16.60;100.00
28927;BME280;16038;47.692;9.400;2023-08-01T09:59:33;95717.50;;;16.60;100.00
28927;BME280;16038;47.692;9.400;2023-08-01T10:01:59;95719.81;;;16.45;100.00
28927;BME280;16038;47.692;9.400;2023-08-01T10:04:30;95713.25;;;16.39;100.00
28927;BME280;16038;47.692;9.400;2023-08-01T10:07:26;95708.44;;;16.59;100.00
28927;BME280;16038;47.692;9.400;2023-08-01T10:09:57;95701.81;;;16.57;100.00
28927;BME280;16038;47.692;9.400;2023-08-01T10:12:25;95712.28;;;16.82;100.00
28927;BME280;16038;47.692;9.400;2023-08-01T10:14:52;95718.66;;;16.79;100.00
28927;BME280;16038;47.692;9.400;2023-08-01T10:17:21;95713.25;;;16.92;100.00
28927;BME280;16038;47.692;9.400;2023-08-01T10:19:50;95717.47;;;16.96;100.00
28927;BME280;16038;47.692;9.400;2023-08-01T10:22:20;95721.63;;;17.05;100.00
28927;BME280;16038;47.692;9.400;2023-08-01T10:24:46;95717.81;;;17.15;100.00
28927;BME280;16038;47.692;9.400;2023-08-01T10:27:19;95712.53;;;17.20;100.00
28927;BME280;16038;47.692;9.400;2023-08-01T10:29:44;95704.00;;;17.44;100.00
28927;BME280;16038;47.692;9.400;2023-08-01T10:32:28;95700.00;;;17.62;100.00
28927;BME280;16038;47.692;9.400;2023-08-01T10:34:54;95693.72;;;17.74;100.00
28927;BME280;16038;47.692;9.400;2023-08-01T10:37:19;95698.00;;;17.91;100.00
28927;BME280;16038;47.692;9.400;2023-08-01T10:39:56;95698.72;;;18.08;100.00
28927;BME280;16038;47.692;9.400;2023-08-01T10:42:21;95698.50;;;18.15;100.00
28927;BME280;16038;47.692;9.400;2023-08-01T10:44:47;95698.41;;;18.45;100.00
28927;BME280;16038;47.692;9.400;2023-08-01T10:47:12;95698.53;;;18.54;100.00
28927;BME280;16038;47.692;9.400;2023-08-01T10:49:42;95693.53;;;18.62;100.00
28927;BME280;16038;47.692;9.400;2023-08-01T10:52:23;95697.75;;;18.66;100.00
28927;BME280;16038;47.692;9.400;2023-08-01T10:55:04;95703.53;;;18.85;100.00
28927;BME280;16038;47.692;9.400;2023-08-01T10:57:33;95691.34;;;18.82;100.00
28927;BME280;16038;47.692;9.400;2023-08-01T10:59:59;95686.00;;;18.88;100.00
28927;BME280;16038;47.692;9.400;2023-08-01T11:02:27;95696.06;;;18.56;100.00
28927;BME280;16038;47.692;9.400;2023-08-01T11:05:04;95705.75;;;18.39;100.00
28927;BME280;16038;47.692;9.400;2023-08-01T11:07:30;95701.50;;;18.21;100.00
28927;BME280;16038;47.692;9.400;2023-08-01T11:10:22;95708.41;;;18.29;100.00
28927;BME280;16038;47.692;9.400;2023-08-01T11:12:47;95694.88;;;18.44;100.00
28927;BME280;16038;47.692;9.400;2023-08-01T11:15:14;95699.19;;;18.45;100.00
28927;BME280;16038;47.692;9.400;2023-08-01T11:17:41;95701.06;;;18.87;100.00
28927;BME280;16038;47.692;9.400;2023-08-01T11:20:08;95704.50;;;19.04;100.00
28927;BME280;16038;47.692;9.400;2023-08-01T11:22:35;95705.81;;;19.25;100.00
28927;BME280;16038;47.692;9.400;2023-08-01T11:25:01;95700.97;;;19.38;100.00
28927;BME280;16038;47.692;9.400;2023-08-01T11:27:28;95693.53;;;19.35;100.00
28927;BME280;16038;47.692;9.400;2023-08-01T11:29:54;95703.97;;;19.44;100.00
28927;BME280;16038;47.692;9.400;2023-08-01T11:32:21;95693.34;;;19.29;100.00
28927;BME280;16038;47.692;9.400;2023-08-01T11:34:46;95701.31;;;19.40;100.00
28927;BME280;16038;47.692;9.400;2023-08-01T11:37:13;95705.19;;;19.43;100.00
28927;BME280;16038;47.692;9.400;2023-08-01T11:39:40;95700.72;;;19.80;100.00
28927;BME280;16038;47.692;9.400;2023-08-01T11:42:06;95699.78;;;19.61;100.00
28927;BME280;16038;47.692;9.400;2023-08-01T11:44:31;95705.56;;;19.89;100.00
28927;BME280;16038;47.692;9.400;2023-08-01T11:46:57;95699.13;;;19.92;100.00
28927;BME280;16038;47.692;9.400;2023-08-01T11:49:23;95700.97;;;19.73;100.00
28927;BME280;16038;47.692;9.400;2023-08-01T11:51:48;95714.94;;;19.47;100.00
28927;BME280;16038;47.692;9.400;2023-08-01T11:54:14;95706.53;;;19.38;100.00
28927;BME280;16038;47.692;9.400;2023-08-01T11:56:42;95715.81;;;19.09;100.00
28927;BME280;16038;47.692;9.400;2023-08-01T11:59:12;95723.72;;;19.46;100.00
28927;BME280;16038;47.692;9.400;2023-08-01T12:01:42;95708.13;;;19.61;100.00
28927;BME280;16038;47.692;9.400;2023-08-01T12:04:07;95710.88;;;19.74;100.00
28927;BME280;16038;47.692;9.400;2023-08-01T12:06:33;95712.38;;;19.53;100.00
28927;BME280;16038;47.692;9.400;2023-08-01T12:09:08;95711.03;;;19.58;100.00
28927;BME280;16038;47.692;9.400;2023-08-01T12:11:34;95710.69;;;19.56;100.00
28927;BME280;16038;47.692;9.400;2023-08-01T12:14:08;95688.88;;;19.67;100.00
28927;BME280;16038;47.692;9.400;2023-08-01T12:16:38;95694.16;;;19.52;100.00
28927;BME280;16038;47.692;9.400;2023-08-01T12:19:04;95712.16;;;19.47;100.00
28927;BME280;16038;47.692;9.400;2023-08-01T12:21:31;95701.56;;;19.90;100.00
28927;BME280;16038;47.692;9.400;2023-08-01T12:23:57;95702.84;;;20.20;100.00
28927;BME280;16038;47.692;9.400;2023-08-01T12:26:23;95702.16;;;19.85;100.00
28927;BME280;16038;47.692;9.400;2023-08-01T12:28:48;95695.69;;;20.10;100.00
28927;BME280;16038;47.692;9.400;2023-08-01T12:31:17;95694.97;;;19.97;100.00
28927;BME280;16038;47.692;9.400;2023-08-01T12:33:46;95688.72;;;19.83;100.00
28927;BME280;16038;47.692;9.400;2023-08-01T12:36:12;95685.94;;;19.83;100.00
28927;BME280;16038;47.692;9.400;2023-08-01T12:38:38;95685.81;;;19.87;100.00
28927;BME280;16038;47.692;9.400;2023-08-01T12:41:04;95686.22;;;20.08;100.00
28927;BME280;16038;47.692;9.400;2023-08-01T12:43:29;95686.88;;;20.43;100.00
28927;BME280;16038;47.692;9.400;2023-08-01T12:45:55;95674.00;;;19.74;99.23